sensor_id;sensor_type;location;lat;lon;timestamp;temperature;humidity
16327;DHT22;34812;49.846;9.610;2022-08-03T00:00:22;15.80;99.90
16327;DHT22;34812;49.846;9.610;2022-08-03T00:01:23;15.80;99.90
16327;DHT22;34812;49.846;9.610;2022-08-03T00:02:25;15.80;99.90
16327;DHT22;34812;49.846;9.610;2022-08-03T00:03:26;15.90;99.90
16327;DHT22;34812;49.846;9.610;2022-08-03T00:04:28;15.80;99.90
16327;DHT22;34812;49.846;9.610;2022-08-03T00:05:28;15.80;99.90
16327;DHT22;34812;49.846;9.610;2022-08-03T00:06:32;15.80;99.90
16327;DHT22;34812;49.846;9.610;2022-08-03T00:07:33;15.70;99.90
16327;DHT22;34812;49.846;9.610;2022-08-03T00:08:35;15.70;99.90
16327;DHT22;34812;49.846;9.610;2022-08-03T00:09:35;15.70;99.90
16327;DHT22;34812;49.846;9.610;2022-08-03T00:10:37;15.70;99.90
16327;DHT22;34812;49.846;9.610;2022-08-03T00:11:38;15.70;99.90
16327;DHT22;34812;49.846;9.610;2022-08-03T00:12:39;15.70;99.90
16327;DHT22;34812;49.846;9.610;2022-08-03T00:13:42;15.70;99.90
16327;DHT22;34812;49.846;9.610;2022-08-03T00:14:43;15.70;99.90
16327;DHT22;34812;49.846;9.610;2022-08-03T00:15:44;15.70;99.90
16327;DHT22;34812;49.846;9.610;2022-08-03T00:16:46;15.70;99.90
16327;DHT22;34812;49.846;9.610;2022-08-03T00:17:47;15.60;99.90
16327;DHT22;34812;49.846;9.610;2022-08-03T00:18:48;15.60;99.90
16327;DHT22;34812;49.846;9.610;2022-08-03T00:19:49;15.60;99.90
16327;DHT22;34812;49.846;9.610;2022-08-03T00:20:51;15.60;99.90
16327;DHT22;34812;49.846;9.610;2022-08-03T00:21:52;15.60;99.90
16327;DHT22;34812;49.846;9.610;2022-08-03T00:22:53;15.50;99.90
16327;DHT22;34812;49.846;9.610;2022-08-03T00:23:54;15.50;99.90
16327;DHT22;34812;49.846;9.610;2022-08-03T00:24:56;15.50;99.90
16327;DHT22;34812;49.846;9.610;2022-08-03T00:25:57;15.50;99.90
16327;DHT22;34812;49.846;9.610;2022-08-03T00:26:58;15.50;99.90
16327;DHT22;34812;49.846;9.610;2022-08-03T00:27:59;15.50;99.90
16327;DHT22;34812;49.846;9.610;2022-08-03T00:29:02;15.50;99.90
16327;DHT22;34812;49.846;9.610;2022-08-03T00:30:04;15.50;99.90
16327;DHT22;34812;49.846;9.610;2022-08-03T00:31:06;15.50;99.90
16327;DHT22;34812;49.846;9.610;2022-08-03T00:32:06;15.50;99.90
16327;DHT22;34812;49.846;9.610;2022-08-03T00:33:08;15.50;99.90
16327;DHT22;34812;49.846;9.610;2022-08-03T00:34:09;15.50;99.90
16327;DHT22;34812;49.846;9.610;2022-08-03T00:35:11;15.50;99.90
16327;DHT22;34812;49.846;9.610;2022-08-03T00:36:12;15.50;99.90
16327;DHT22;34812;49.846;9.610;2022-08-03T00:37:14;15.60;99.90
16327;DHT22;34812;49.846;9.610;2022-08-03T00:38:14;15.50;99.90
16327;DHT22;34812;49.846;9.610;2022-08-03T00:39:16;15.50;99.90
16327;DHT22;34812;49.846;9.610;2022-08-03T00:40:18;15.50;99.90
16327;DHT22;34812;49.846;9.610;2022-08-03T00:41:20;15.40;99.90
16327;DHT22;34812;49.846;9.610;2022-08-03T00:42:20;15.40;99.90
16327;DHT22;34812;49.846;9.610;2022-08-03T00:43:24;15.40;99.90
16327;DHT22;34812;49.846;9.610;2022-08-03T00:44:27;15.30;99.90
16327;DHT22;34812;49.846;9.610;2022-08-03T00:45:30;15.30;99.90
16327;DHT22;34812;49.846;9.610;2022-08-03T00:46:33;15.30;99.90
16327;DHT22;34812;49.846;9.610;2022-08-03T00:47:33;15.30;99.90
16327;DHT22;34812;49.846;9.610;2022-08-03T00:48:35;15.30;99.90
16327;DHT22;34812;49.846;9.610;2022-08-03T00:49:38;15.20;99.90
16327;DHT22;34812;49.846;9.610;2022-08-03T00:50:40;15.20;99.90
16327;DHT22;34812;49.846;9.610;2022-08-03T00:51:42;15.20;99.90
16327;DHT22;34812;49.846;9.610;2022-08-03T00:52:43;15.20;99.90
16327;DHT22;34812;49.846;9.610;2022-08-03T00:53:45;15.20;99.90
16327;DHT22;34812;49.846;9.610;2022-08-03T00:54:46;15.20;99.90
16327;DHT22;34812;49.846;9.610;2022-08-03T00:55:48;15.20;99.90
16327;DHT22;34812;49.846;9.610;2022-08-03T00:56:49;15.20;99.90
16327;DHT22;34812;49.846;9.610;2022-08-03T00:57:52;15.20;99.90
16327;DHT22;34812;49.846;9.610;2022-08-03T00:58:56;15.20;99.90
16327;DHT22;34812;49.846;9.610;2022-08-03T00:59:59;15.20;99.90
16327;DHT22;34812;49.846;9.610;2022-08-03T01:01:00;15.20;99.90
16327;DHT22;34812;49.846;9.610;2022-08-03T01:02:04;15.20;99.90
16327;DHT22;34812;49.846;9.610;2022-08-03T01:03:06;15.20;99.90
16327;DHT22;34812;49.846;9.610;2022-08-03T01:04:08;15.10;99.90
16327;DHT22;34812;49.846;9.610;2022-08-03T01:05:09;15.10;99.90
16327;DHT22;34812;49.846;9.610;2022-08-03T01:06:17;15.10;99.90
16327;DHT22;34812;49.846;9.610;2022-08-03T01:07:25;15.00;99.90
16327;DHT22;34812;49.846;9.610;2022-08-03T01:08:35;15.00;99.90
16327;DHT22;34812;49.846;9.610;2022-08-03T01:09:47;15.00;99.90
16327;DHT22;34812;49.846;9.610;2022-08-03T01:11:00;14.90;99.90
16327;DHT22;34812;49.846;9.610;2022-08-03T01:12:09;14.90;99.90
16327;DHT22;34812;49.846;9.610;2022-08-03T01:13:22;14.90;99.90
16327;DHT22;34812;49.846;9.610;2022-08-03T01:14:31;14.80;99.90
16327;DHT22;34812;49.846;9.610;2022-08-03T01:15:39;14.80;99.90
16327;DHT22;34812;49.846;9.610;2022-08-03T01:16:49;14.80;99.90
16327;DHT22;34812;49.846;9.610;2022-08-03T01:17:55;14.80;99.90
16327;DHT22;34812;49.846;9.610;2022-08-03T01:19:01;14.80;99.90
16327;DHT22;34812;49.846;9.610;2022-08-03T01:20:10;14.80;99.90
16327;DHT22;34812;49.846;9.610;2022-08-03T01:21:17;14.80;99.90
16327;DHT22;34812;49.846;9.610;2022-08-03T01:22:39;14.80;99.90
16327;DHT22;34812;49.846;9.610;2022-08-03T01:24:04;14.80;99.90
16327;DHT22;34812;49.846;9.610;2022-08-03T01:25:13;14.80;99.90
16327;DHT22;34812;49.846;9.610;2022-08-03T01:26:41;14.80;99.90
16327;DHT22;34812;49.846;9.610;2022-08-03T01:27:58;14.70;99.90
16327;DHT22;34812;49.846;9.610;2022-08-03T01:29:09;14.70;99.90
16327;DHT22;34812;49.846;9.610;2022-08-03T01:30:16;14.70;99.90
16327;DHT22;34812;49.846;9.610;2022-08-03T01:31:22;14.70;99.90
16327;DHT22;34812;49.846;9.610;2022-08-03T01:32:38;14.60;99.90
16327;DHT22;34812;49.846;9.610;2022-08-03T01:33:42;14.60;99.90
16327;DHT22;34812;49.846;9.610;2022-08-03T01:34:47;14.60;99.90
16327;DHT22;34812;49.846;9.610;2022-08-03T01:35:56;14.60;99.90
16327;DHT22;34812;49.846;9.610;2022-08-03T01:37:02;14.60;99.90
16327;DHT22;34812;49.846;9.610;2022-08-03T01:38:10;14.60;99.90
16327;DHT22;34812;49.846;9.610;2022-08-03T01:39:12;14.60;99.90
16327;DHT22;34812;49.846;9.610;2022-08-03T01:40:15;14.50;99.90
16327;DHT22;34812;49.846;9.610;2022-08-03T01:41:21;14.50;99.90
16327;DHT22;34812;49.846;9.610;2022-08-03T01:42:22;14.50;99.90
16327;DHT22;34812;49.846;9.610;2022-08-03T01:43:26;14.60;99.90
16327;DHT22;34812;49.846;9.610;2022-08-03T01:44:30;14.50;99.90
16327;DHT22;34812;49.846;9.610;2022-08-03T01:45:35;14.60;99.90
16327;DHT22;34812;49.846;9.610;2022-08-03T01:46:37;14.50;99.90
16327;DHT22;34812;49.846;9.610;2022-08-03T01:47:40;14.50;99.90
16327;DHT22;34812;49.846;9.610;2022-08-03T01:48:42;14.50;99.90
16327;DHT22;34812;49.846;9.610;2022-08-03T01:49:45;14.50;99.90
16327;DHT22;34812;49.846;9.610;2022-08-03T01:50:48;14.60;99.90
16327;DHT22;34812;49.846;9.610;2022-08-03T01:51:51;14.60;99.90
16327;DHT22;34812;49.846;9.610;2022-08-03T01:52:53;14.60;99.90
16327;DHT22;34812;49.846;9.610;2022-08-03T01:53:57;14.60;99.90
16327;DHT22;34812;49.846;9.610;2022-08-03T01:55:02;14.50;99.90
16327;DHT22;34812;49.846;9.610;2022-08-03T01:56:05;14.50;99.90
16327;DHT22;34812;49.846;9.610;2022-08-03T01:57:07;14.40;99.90
16327;DHT22;34812;49.846;9.610;2022-08-03T01:58:11;14.40;99.90
16327;DHT22;34812;49.846;9.610;2022-08-03T01:59:13;14.40;99.90
16327;DHT22;34812;49.846;9.610;2022-08-03T02:00:17;14.30;99.90
16327;DHT22;34812;49.846;9.610;2022-08-03T02:01:20;14.30;99.90
16327;DHT22;34812;49.846;9.610;2022-08-03T02:02:23;14.30;99.90
16327;DHT22;34812;49.846;9.610;2022-08-03T02:03:26;14.30;99.90
16327;DHT22;34812;49.846;9.610;2022-08-03T02:04:29;14.30;99.90
16327;DHT22;34812;49.846;9.610;2022-08-03T02:05:31;14.20;99.90
16327;DHT22;34812;49.846;9.610;2022-08-03T02:06:33;14.20;99.90
16327;DHT22;34812;49.846;9.610;2022-08-03T02:07:35;14.20;99.90
16327;DHT22;34812;49.846;9.610;2022-08-03T02:08:38;14.10;99.90
16327;DHT22;34812;49.846;9.610;2022-08-03T02:09:41;14.10;99.90
16327;DHT22;34812;49.846;9.610;2022-08-03T02:10:45;14.10;99.90
16327;DHT22;34812;49.846;9.610;2022-08-03T02:11:48;14.10;99.90
16327;DHT22;34812;49.846;9.610;2022-08-03T02:12:51;14.10;99.90
16327;DHT22;34812;49.846;9.610;2022-08-03T02:13:56;14.10;99.90
16327;DHT22;34812;49.846;9.610;2022-08-03T02:14:58;14.10;99.90
16327;DHT22;34812;49.846;9.610;2022-08-03T02:16:01;14.10;99.90
16327;DHT22;34812;49.846;9.610;2022-08-03T02:17:06;14.10;99.90
16327;DHT22;34812;49.846;9.610;2022-08-03T02:18:09;14.20;99.90
16327;DHT22;34812;49.846;9.610;2022-08-03T02:19:11;14.20;99.90
16327;DHT22;34812;49.846;9.610;2022-08-03T02:20:14;14.30;99.90
16327;DHT22;34812;49.846;9.610;2022-08-03T02:21:15;14.30;99.90
16327;DHT22;34812;49.846;9.610;2022-08-03T02:22:17;14.30;99.90
16327;DHT22;34812;49.846;9.610;2022-08-03T02:23:18;14.30;99.90
16327;DHT22;34812;49.846;9.610;2022-08-03T02:24:20;14.30;99.90
16327;DHT22;34812;49.846;9.610;2022-08-03T02:25:21;14.20;99.90
16327;DHT22;34812;49.846;9.610;2022-08-03T02:26:24;14.20;99.90
16327;DHT22;34812;49.846;9.610;2022-08-03T02:27:28;14.20;99.90
16327;DHT22;34812;49.846;9.610;2022-08-03T02:28:35;14.20;99.90
16327;DHT22;34812;49.846;9.610;2022-08-03T02:29:38;14.10;99.90
16327;DHT22;34812;49.846;9.610;2022-08-03T02:30:42;14.10;99.90
16327;DHT22;34812;49.846;9.610;2022-08-03T02:31:45;14.10;99.90
16327;DHT22;34812;49.846;9.610;2022-08-03T02:32:54;14.00;99.90
16327;DHT22;34812;49.846;9.610;2022-08-03T02:34:00;14.00;99.90
16327;DHT22;34812;49.846;9.610;2022-08-03T02:35:05;14.00;99.90
16327;DHT22;34812;49.846;9.610;2022-08-03T02:36:07;14.00;99.90
16327;DHT22;34812;49.846;9.610;2022-08-03T02:37:10;14.00;99.90
16327;DHT22;34812;49.846;9.610;2022-08-03T02:38:14;14.00;99.90
16327;DHT22;34812;49.846;9.610;2022-08-03T02:39:19;14.00;99.90
16327;DHT22;34812;49.846;9.610;2022-08-03T02:40:22;14.00;99.90
16327;DHT22;34812;49.846;9.610;2022-08-03T02:41:29;13.90;99.90
16327;DHT22;34812;49.846;9.610;2022-08-03T02:42:32;13.90;99.90
16327;DHT22;34812;49.846;9.610;2022-08-03T02:43:36;13.90;99.90
16327;DHT22;34812;49.846;9.610;2022-08-03T02:44:38;13.90;99.90
16327;DHT22;34812;49.846;9.610;2022-08-03T02:45:42;13.90;99.90
16327;DHT22;34812;49.846;9.610;2022-08-03T02:46:45;13.90;99.90
16327;DHT22;34812;49.846;9.610;2022-08-03T02:47:49;13.80;99.90
16327;DHT22;34812;49.846;9.610;2022-08-03T02:48:53;13.90;99.90
16327;DHT22;34812;49.846;9.610;2022-08-03T02:49:56;13.90;99.90
16327;DHT22;34812;49.846;9.610;2022-08-03T02:51:00;13.90;99.90
16327;DHT22;34812;49.846;9.610;2022-08-03T02:52:03;13.90;99.90
16327;DHT22;34812;49.846;9.610;2022-08-03T02:53:11;13.90;99.90
16327;DHT22;34812;49.846;9.610;2022-08-03T02:54:15;13.90;99.90
16327;DHT22;34812;49.846;9.610;2022-08-03T02:55:19;13.90;99.90
16327;DHT22;34812;49.846;9.610;2022-08-03T02:56:21;13.90;99.90
16327;DHT22;34812;49.846;9.610;2022-08-03T02:57:26;13.80;99.90
16327;DHT22;34812;49.846;9.610;2022-08-03T02:58:28;13.80;99.90
16327;DHT22;34812;49.846;9.610;2022-08-03T02:59:31;13.80;99.90
16327;DHT22;34812;49.846;9.610;2022-08-03T03:00:34;13.80;99.90
16327;DHT22;34812;49.846;9.610;2022-08-03T03:01:37;13.80;99.90
16327;DHT22;34812;49.846;9.610;2022-08-03T03:02:39;13.70;99.90
16327;DHT22;34812;49.846;9.610;2022-08-03T03:03:43;13.80;99.90
16327;DHT22;34812;49.846;9.610;2022-08-03T03:04:45;13.70;99.90
16327;DHT22;34812;49.846;9.610;2022-08-03T03:05:49;13.70;99.90
16327;DHT22;34812;49.846;9.610;2022-08-03T03:06:50;13.70;99.90
16327;DHT22;34812;49.846;9.610;2022-08-03T03:07:52;13.60;99.90
16327;DHT22;34812;49.846;9.610;2022-08-03T03:08:55;13.50;99.90
16327;DHT22;34812;49.846;9.610;2022-08-03T03:09:57;13.50;99.90
16327;DHT22;34812;49.846;9.610;2022-08-03T03:10:59;13.50;99.90
16327;DHT22;34812;49.846;9.610;2022-08-03T03:12:02;13.50;99.90
16327;DHT22;34812;49.846;9.610;2022-08-03T03:13:04;13.50;99.90
16327;DHT22;34812;49.846;9.610;2022-08-03T03:14:07;13.40;99.90
16327;DHT22;34812;49.846;9.610;2022-08-03T03:15:09;13.40;99.90
16327;DHT22;34812;49.846;9.610;2022-08-03T03:16:13;13.40;99.90
16327;DHT22;34812;49.846;9.610;2022-08-03T03:17:16;13.40;99.90
16327;DHT22;34812;49.846;9.610;2022-08-03T03:18:19;13.50;99.90
16327;DHT22;34812;49.846;9.610;2022-08-03T03:19:22;13.50;99.90
16327;DHT22;34812;49.846;9.610;2022-08-03T03:20:24;13.50;99.90
16327;DHT22;34812;49.846;9.610;2022-08-03T03:21:26;13.50;99.90
16327;DHT22;34812;49.846;9.610;2022-08-03T03:22:30;13.50;99.90
16327;DHT22;34812;49.846;9.610;2022-08-03T03:23:34;13.50;99.90
16327;DHT22;34812;49.846;9.610;2022-08-03T03:24:37;13.40;99.90
16327;DHT22;34812;49.846;9.610;2022-08-03T03:25:39;13.40;99.90
16327;DHT22;34812;49.846;9.610;2022-08-03T03:26:41;13.40;99.90
16327;DHT22;34812;49.846;9.610;2022-08-03T03:27:43;13.30;99.90
16327;DHT22;34812;49.846;9.610;2022-08-03T03:28:45;13.30;99.90
16327;DHT22;34812;49.846;9.610;2022-08-03T03:29:46;13.30;99.90
16327;DHT22;34812;49.846;9.610;2022-08-03T03:30:48;13.30;99.90
16327;DHT22;34812;49.846;9.610;2022-08-03T03:31:49;13.20;99.90
16327;DHT22;34812;49.846;9.610;2022-08-03T03:32:51;13.20;99.90
16327;DHT22;34812;49.846;9.610;2022-08-03T03:33:52;13.20;99.90
16327;DHT22;34812;49.846;9.610;2022-08-03T03:34:57;13.20;99.90
16327;DHT22;34812;49.846;9.610;2022-08-03T03:35:58;13.20;99.90
16327;DHT22;34812;49.846;9.610;2022-08-03T03:37:00;13.20;99.90
16327;DHT22;34812;49.846;9.610;2022-08-03T03:38:02;13.10;99.90
16327;DHT22;34812;49.846;9.610;2022-08-03T03:39:03;13.10;99.90
16327;DHT22;34812;49.846;9.610;2022-08-03T03:40:06;13.10;99.90
16327;DHT22;34812;49.846;9.610;2022-08-03T03:41:09;13.20;99.90
16327;DHT22;34812;49.846;9.610;2022-08-03T03:42:10;13.20;99.90
16327;DHT22;34812;49.846;9.610;2022-08-03T03:43:12;13.30;99.90
16327;DHT22;34812;49.846;9.610;2022-08-03T03:44:13;13.30;99.90
16327;DHT22;34812;49.846;9.610;2022-08-03T03:45:14;13.30;99.90
16327;DHT22;34812;49.846;9.610;2022-08-03T03:46:16;13.30;99.90
16327;DHT22;34812;49.846;9.610;2022-08-03T03:47:17;13.40;99.90
16327;DHT22;34812;49.846;9.610;2022-08-03T03:48:19;13.40;99.90
16327;DHT22;34812;49.846;9.610;2022-08-03T03:49:20;13.40;99.90
16327;DHT22;34812;49.846;9.610;2022-08-03T03:50:23;13.40;99.90
16327;DHT22;34812;49.846;9.610;2022-08-03T03:51:24;13.40;99.90
16327;DHT22;34812;49.846;9.610;2022-08-03T03:52:26;13.40;99.90
16327;DHT22;34812;49.846;9.610;2022-08-03T03:53:27;13.40;99.90
16327;DHT22;34812;49.846;9.610;2022-08-03T03:54:38;13.40;99.90
16327;DHT22;34812;49.846;9.610;2022-08-03T03:55:40;13.40;99.90
16327;DHT22;34812;49.846;9.610;2022-08-03T03:56:41;13.50;99.90
16327;DHT22;34812;49.846;9.610;2022-08-03T03:57:42;13.50;99.90
16327;DHT22;34812;49.846;9.610;2022-08-03T03:58:44;13.50;99.90
16327;DHT22;34812;49.846;9.610;2022-08-03T03:59:46;13.50;99.90
16327;DHT22;34812;49.846;9.610;2022-08-03T04:00:46;13.50;99.90
16327;DHT22;34812;49.846;9.610;2022-08-03T04:01:49;13.50;99.90
16327;DHT22;34812;49.846;9.610;2022-08-03T04:02:51;13.50;99.90
16327;DHT22;34812;49.846;9.610;2022-08-03T04:03:52;13.40;99.90
16327;DHT22;34812;49.846;9.610;2022-08-03T04:04:54;13.40;99.90
16327;DHT22;34812;49.846;9.610;2022-08-03T04:06:12;13.30;99.90
16327;DHT22;34812;49.846;9.610;2022-08-03T04:07:39;13.30;99.90
16327;DHT22;34812;49.846;9.610;2022-08-03T04:09:11;13.30;99.90
16327;DHT22;34812;49.846;9.610;2022-08-03T04:10:31;13.30;99.90
16327;DHT22;34812;49.846;9.610;2022-08-03T04:11:53;13.30;99.90
16327;DHT22;34812;49.846;9.610;2022-08-03T04:12:55;13.30;99.90
16327;DHT22;34812;49.846;9.610;2022-08-03T04:14:00;13.40;99.90
16327;DHT22;34812;49.846;9.610;2022-08-03T04:15:05;13.40;99.90
16327;DHT22;34812;49.846;9.610;2022-08-03T04:16:08;13.40;99.90
16327;DHT22;34812;49.846;9.610;2022-08-03T04:17:11;13.50;99.90
16327;DHT22;34812;49.846;9.610;2022-08-03T04:18:14;13.50;99.90
16327;DHT22;34812;49.846;9.610;2022-08-03T04:19:18;13.50;99.90
16327;DHT22;34812;49.846;9.610;2022-08-03T04:20:22;13.60;99.90
16327;DHT22;34812;49.846;9.610;2022-08-03T04:21:24;13.70;99.90
16327;DHT22;34812;49.846;9.610;2022-08-03T04:22:28;13.60;99.90
16327;DHT22;34812;49.846;9.610;2022-08-03T04:23:33;13.60;99.90
16327;DHT22;34812;49.846;9.610;2022-08-03T04:24:40;13.70;99.90
16327;DHT22;34812;49.846;9.610;2022-08-03T04:25:42;13.70;99.90
16327;DHT22;34812;49.846;9.610;2022-08-03T04:26:44;13.70;99.90
16327;DHT22;34812;49.846;9.610;2022-08-03T04:27:48;13.70;99.90
16327;DHT22;34812;49.846;9.610;2022-08-03T04:28:53;13.70;99.90
16327;DHT22;34812;49.846;9.610;2022-08-03T04:29:55;13.80;99.90
16327;DHT22;34812;49.846;9.610;2022-08-03T04:30:58;13.70;99.90
16327;DHT22;34812;49.846;9.610;2022-08-03T04:32:00;13.80;99.90
16327;DHT22;34812;49.846;9.610;2022-08-03T04:33:02;13.80;99.90
16327;DHT22;34812;49.846;9.610;2022-08-03T04:34:03;13.80;99.90
16327;DHT22;34812;49.846;9.610;2022-08-03T04:35:06;13.80;99.90
16327;DHT22;34812;49.846;9.610;2022-08-03T04:36:10;13.80;99.90
16327;DHT22;34812;49.846;9.610;2022-08-03T04:37:20;13.70;99.90
16327;DHT22;34812;49.846;9.610;2022-08-03T04:38:24;13.80;99.90
16327;DHT22;34812;49.846;9.610;2022-08-03T04:39:27;13.80;99.90
16327;DHT22;34812;49.846;9.610;2022-08-03T04:40:31;13.80;99.90
16327;DHT22;34812;49.846;9.610;2022-08-03T04:41:34;13.80;99.90
16327;DHT22;34812;49.846;9.610;2022-08-03T04:42:36;13.80;99.90
16327;DHT22;34812;49.846;9.610;2022-08-03T04:43:39;13.90;99.90
16327;DHT22;34812;49.846;9.610;2022-08-03T04:44:42;13.90;99.90
16327;DHT22;34812;49.846;9.610;2022-08-03T04:45:46;13.90;99.90
16327;DHT22;34812;49.846;9.610;2022-08-03T04:46:47;13.90;99.90
16327;DHT22;34812;49.846;9.610;2022-08-03T04:47:49;13.90;99.90
16327;DHT22;34812;49.846;9.610;2022-08-03T04:48:51;14.00;99.90
16327;DHT22;34812;49.846;9.610;2022-08-03T04:49:53;13.90;99.90
16327;DHT22;34812;49.846;9.610;2022-08-03T04:50:54;14.00;99.90
16327;DHT22;34812;49.846;9.610;2022-08-03T04:51:56;14.00;99.90
16327;DHT22;34812;49.846;9.610;2022-08-03T04:52:58;14.00;99.90
16327;DHT22;34812;49.846;9.610;2022-08-03T04:54:00;14.00;99.90
16327;DHT22;34812;49.846;9.610;2022-08-03T04:55:01;14.00;99.90
16327;DHT22;34812;49.846;9.610;2022-08-03T04:56:04;14.00;99.90
16327;DHT22;34812;49.846;9.610;2022-08-03T04:57:05;14.00;99.90
16327;DHT22;34812;49.846;9.610;2022-08-03T04:58:06;13.90;99.90
16327;DHT22;34812;49.846;9.610;2022-08-03T04:59:07;14.00;99.90
16327;DHT22;34812;49.846;9.610;2022-08-03T05:00:10;14.00;99.90
16327;DHT22;34812;49.846;9.610;2022-08-03T05:01:11;14.00;99.90
16327;DHT22;34812;49.846;9.610;2022-08-03T05:02:13;14.00;99.90
16327;DHT22;34812;49.846;9.610;2022-08-03T05:03:13;14.10;99.90
16327;DHT22;34812;49.846;9.610;2022-08-03T05:04:15;14.10;99.90
16327;DHT22;34812;49.846;9.610;2022-08-03T05:05:16;14.10;99.90
16327;DHT22;34812;49.846;9.610;2022-08-03T05:06:18;14.10;99.90
16327;DHT22;34812;49.846;9.610;2022-08-03T05:07:18;14.20;99.90
16327;DHT22;34812;49.846;9.610;2022-08-03T05:08:21;14.20;99.90
16327;DHT22;34812;49.846;9.610;2022-08-03T05:09:22;14.20;99.90
16327;DHT22;34812;49.846;9.610;2022-08-03T05:10:24;14.20;99.90
16327;DHT22;34812;49.846;9.610;2022-08-03T05:11:25;14.20;99.90
16327;DHT22;34812;49.846;9.610;2022-08-03T05:12:26;14.30;99.90
16327;DHT22;34812;49.846;9.610;2022-08-03T05:13:27;14.30;99.90
16327;DHT22;34812;49.846;9.610;2022-08-03T05:14:29;14.30;99.90
16327;DHT22;34812;49.846;9.610;2022-08-03T05:15:29;14.30;99.90
16327;DHT22;34812;49.846;9.610;2022-08-03T05:16:31;14.30;99.90
16327;DHT22;34812;49.846;9.610;2022-08-03T05:17:32;14.40;99.90
16327;DHT22;34812;49.846;9.610;2022-08-03T05:18:34;14.40;99.90
16327;DHT22;34812;49.846;9.610;2022-08-03T05:19:35;14.40;99.90
16327;DHT22;34812;49.846;9.610;2022-08-03T05:20:37;14.50;99.90
16327;DHT22;34812;49.846;9.610;2022-08-03T05:21:38;14.50;99.90
16327;DHT22;34812;49.846;9.610;2022-08-03T05:22:39;14.50;99.90
16327;DHT22;34812;49.846;9.610;2022-08-03T05:23:41;14.60;99.90
16327;DHT22;34812;49.846;9.610;2022-08-03T05:24:43;14.60;99.90
16327;DHT22;34812;49.846;9.610;2022-08-03T05:25:44;14.60;99.90
16327;DHT22;34812;49.846;9.610;2022-08-03T05:26:45;14.60;99.90
16327;DHT22;34812;49.846;9.610;2022-08-03T05:27:46;14.60;99.90
16327;DHT22;34812;49.846;9.610;2022-08-03T05:28:48;14.70;99.90
16327;DHT22;34812;49.846;9.610;2022-08-03T05:29:49;14.70;99.90
16327;DHT22;34812;49.846;9.610;2022-08-03T05:30:51;14.70;99.90
16327;DHT22;34812;49.846;9.610;2022-08-03T05:31:52;14.80;99.90
16327;DHT22;34812;49.846;9.610;2022-08-03T05:32:54;14.80;99.90
16327;DHT22;34812;49.846;9.610;2022-08-03T05:33:56;14.70;99.90
16327;DHT22;34812;49.846;9.610;2022-08-03T05:34:57;14.80;99.90
16327;DHT22;34812;49.846;9.610;2022-08-03T05:35:59;14.80;99.90
16327;DHT22;34812;49.846;9.610;2022-08-03T05:37:00;14.80;99.90
16327;DHT22;34812;49.846;9.610;2022-08-03T05:38:01;14.90;99.90
16327;DHT22;34812;49.846;9.610;2022-08-03T05:39:05;15.00;99.90
16327;DHT22;34812;49.846;9.610;2022-08-03T05:40:06;15.10;99.90
16327;DHT22;34812;49.846;9.610;2022-08-03T05:41:08;15.10;99.90
16327;DHT22;34812;49.846;9.610;2022-08-03T05:42:09;15.10;99.90
16327;DHT22;34812;49.846;9.610;2022-08-03T05:43:11;15.10;99.90
16327;DHT22;34812;49.846;9.610;2022-08-03T05:44:11;15.10;99.90
16327;DHT22;34812;49.846;9.610;2022-08-03T05:45:13;15.20;99.90
16327;DHT22;34812;49.846;9.610;2022-08-03T05:46:14;15.20;99.90
16327;DHT22;34812;49.846;9.610;2022-08-03T05:47:16;15.20;99.90
16327;DHT22;34812;49.846;9.610;2022-08-03T05:48:16;15.30;99.90
16327;DHT22;34812;49.846;9.610;2022-08-03T05:49:18;15.30;99.90
16327;DHT22;34812;49.846;9.610;2022-08-03T05:50:21;15.30;99.90
16327;DHT22;34812;49.846;9.610;2022-08-03T05:51:21;15.30;99.90
16327;DHT22;34812;49.846;9.610;2022-08-03T05:52:23;15.30;99.90
16327;DHT22;34812;49.846;9.610;2022-08-03T05:53:24;15.40;99.90
16327;DHT22;34812;49.846;9.610;2022-08-03T05:54:27;15.40;99.90
16327;DHT22;34812;49.846;9.610;2022-08-03T05:55:29;15.40;99.90
16327;DHT22;34812;49.846;9.610;2022-08-03T05:56:30;15.50;99.90
16327;DHT22;34812;49.846;9.610;2022-08-03T05:57:32;15.50;99.90
16327;DHT22;34812;49.846;9.610;2022-08-03T05:58:32;15.50;99.90
16327;DHT22;34812;49.846;9.610;2022-08-03T05:59:34;15.60;99.90
16327;DHT22;34812;49.846;9.610;2022-08-03T06:00:37;15.60;99.90
16327;DHT22;34812;49.846;9.610;2022-08-03T06:01:39;15.60;99.90
16327;DHT22;34812;49.846;9.610;2022-08-03T06:02:39;15.60;99.90
16327;DHT22;34812;49.846;9.610;2022-08-03T06:03:41;15.70;99.90
16327;DHT22;34812;49.846;9.610;2022-08-03T06:04:42;15.70;99.90
16327;DHT22;34812;49.846;9.610;2022-08-03T06:05:45;15.70;99.90
16327;DHT22;34812;49.846;9.610;2022-08-03T06:06:45;15.80;99.90
16327;DHT22;34812;49.846;9.610;2022-08-03T06:07:49;15.80;99.90
16327;DHT22;34812;49.846;9.610;2022-08-03T06:08:50;15.90;99.90
16327;DHT22;34812;49.846;9.610;2022-08-03T06:09:53;15.90;99.90
16327;DHT22;34812;49.846;9.610;2022-08-03T06:10:54;16.00;99.90
16327;DHT22;34812;49.846;9.610;2022-08-03T06:11:56;16.00;99.90
16327;DHT22;34812;49.846;9.610;2022-08-03T06:12:56;16.10;99.90
16327;DHT22;34812;49.846;9.610;2022-08-03T06:13:58;16.10;99.90
16327;DHT22;34812;49.846;9.610;2022-08-03T06:15:00;16.10;99.90
16327;DHT22;34812;49.846;9.610;2022-08-03T06:16:01;16.20;99.90
16327;DHT22;34812;49.846;9.610;2022-08-03T06:17:02;16.20;99.90
16327;DHT22;34812;49.846;9.610;2022-08-03T06:18:03;16.30;99.90
16327;DHT22;34812;49.846;9.610;2022-08-03T06:19:05;16.30;99.90
16327;DHT22;34812;49.846;9.610;2022-08-03T06:20:07;16.30;99.90
16327;DHT22;34812;49.846;9.610;2022-08-03T06:21:09;16.40;99.90
16327;DHT22;34812;49.846;9.610;2022-08-03T06:22:10;16.40;99.90
16327;DHT22;34812;49.846;9.610;2022-08-03T06:23:11;16.40;99.90
16327;DHT22;34812;49.846;9.610;2022-08-03T06:24:12;16.50;99.90
16327;DHT22;34812;49.846;9.610;2022-08-03T06:25:15;16.50;99.90
16327;DHT22;34812;49.846;9.610;2022-08-03T06:26:16;16.50;99.90
16327;DHT22;34812;49.846;9.610;2022-08-03T06:27:18;16.60;99.90
16327;DHT22;34812;49.846;9.610;2022-08-03T06:28:20;16.70;99.90
16327;DHT22;34812;49.846;9.610;2022-08-03T06:29:21;16.70;99.90
16327;DHT22;34812;49.846;9.610;2022-08-03T06:30:22;16.80;99.90
16327;DHT22;34812;49.846;9.610;2022-08-03T06:31:26;16.80;99.90
16327;DHT22;34812;49.846;9.610;2022-08-03T06:32:28;16.90;99.90
16327;DHT22;34812;49.846;9.610;2022-08-03T06:33:30;17.00;99.90
16327;DHT22;34812;49.846;9.610;2022-08-03T06:34:31;17.00;99.90
16327;DHT22;34812;49.846;9.610;2022-08-03T06:35:32;17.00;99.90
16327;DHT22;34812;49.846;9.610;2022-08-03T06:36:33;17.10;99.90
16327;DHT22;34812;49.846;9.610;2022-08-03T06:37:41;17.10;99.90
16327;DHT22;34812;49.846;9.610;2022-08-03T06:38:44;17.10;99.90